sensor_id;sensor_type;location;lat;lon;timestamp;P1;durP1;ratioP1;P2;durP2;ratioP2
6378;SDS011;3222;48.858;10.128;2023-04-16T00:00:05;6.00;;;2.60;;
6378;SDS011;3222;48.858;10.128;2023-04-16T00:02:36;3.57;;;3.03;;
6378;SDS011;3222;48.858;10.128;2023-04-16T00:05:02;5.00;;;2.73;;
6378;SDS011;3222;48.858;10.128;2023-04-16T00:07:28;2.97;;;2.77;;
6378;SDS011;3222;48.858;10.128;2023-04-16T00:09:53;4.27;;;2.80;;
6378;SDS011;3222;48.858;10.128;2023-04-16T00:12:19;5.87;;;2.93;;
6378;SDS011;3222;48.858;10.128;2023-04-16T00:14:45;4.17;;;3.30;;
6378;SDS011;3222;48.858;10.128;2023-04-16T00:17:11;5.00;;;3.13;;
6378;SDS011;3222;48.858;10.128;2023-04-16T00:19:37;3.67;;;3.37;;
6378;SDS011;3222;48.858;10.128;2023-04-16T00:22:02;3.87;;;3.57;;
6378;SDS011;3222;48.858;10.128;2023-04-16T00:24:28;3.63;;;3.33;;
6378;SDS011;3222;48.858;10.128;2023-04-16T00:26:54;3.67;;;3.37;;
6378;SDS011;3222;48.858;10.128;2023-04-16T00:29:20;4.90;;;3.60;;
6378;SDS011;3222;48.858;10.128;2023-04-16T00:31:45;4.27;;;3.93;;
6378;SDS011;3222;48.858;10.128;2023-04-16T00:34:11;4.30;;;3.90;;
6378;SDS011;3222;48.858;10.128;2023-04-16T00:36:37;5.60;;;5.00;;
6378;SDS011;3222;48.858;10.128;2023-04-16T00:39:03;5.57;;;5.07;;
6378;SDS011;3222;48.858;10.128;2023-04-16T00:41:29;5.63;;;5.13;;
6378;SDS011;3222;48.858;10.128;2023-04-16T00:43:54;5.57;;;5.07;;
6378;SDS011;3222;48.858;10.128;2023-04-16T00:46:23;7.93;;;5.20;;
6378;SDS011;3222;48.858;10.128;2023-04-16T00:48:50;8.40;;;4.13;;
6378;SDS011;3222;48.858;10.128;2023-04-16T00:51:18;4.27;;;3.87;;
6378;SDS011;3222;48.858;10.128;2023-04-16T00:53:45;7.97;;;4.73;;
6378;SDS011;3222;48.858;10.128;2023-04-16T00:56:12;4.23;;;3.93;;
6378;SDS011;3222;48.858;10.128;2023-04-16T00:58:38;4.30;;;4.00;;
6378;SDS011;3222;48.858;10.128;2023-04-16T01:01:04;6.83;;;3.80;;
6378;SDS011;3222;48.858;10.128;2023-04-16T01:03:36;4.20;;;3.90;;
6378;SDS011;3222;48.858;10.128;2023-04-16T01:06:03;7.73;;;4.03;;
6378;SDS011;3222;48.858;10.128;2023-04-16T01:08:30;3.77;;;3.47;;
6378;SDS011;3222;48.858;10.128;2023-04-16T01:10:56;4.57;;;3.70;;
6378;SDS011;3222;48.858;10.128;2023-04-16T01:13:21;5.40;;;3.80;;
6378;SDS011;3222;48.858;10.128;2023-04-16T01:15:47;4.00;;;3.37;;
6378;SDS011;3222;48.858;10.128;2023-04-16T01:18:17;4.30;;;3.60;;
6378;SDS011;3222;48.858;10.128;2023-04-16T01:20:45;7.40;;;3.13;;
6378;SDS011;3222;48.858;10.128;2023-04-16T01:23:12;3.63;;;3.20;;
6378;SDS011;3222;48.858;10.128;2023-04-16T01:25:37;5.83;;;3.40;;
6378;SDS011;3222;48.858;10.128;2023-04-16T01:28:04;4.03;;;3.73;;
6378;SDS011;3222;48.858;10.128;2023-04-16T01:30:30;4.20;;;3.80;;
6378;SDS011;3222;48.858;10.128;2023-04-16T01:33:11;3.83;;;3.53;;
6378;SDS011;3222;48.858;10.128;2023-04-16T01:35:37;4.20;;;3.73;;
6378;SDS011;3222;48.858;10.128;2023-04-16T01:38:05;3.77;;;3.53;;
6378;SDS011;3222;48.858;10.128;2023-04-16T01:40:32;3.90;;;3.60;;
6378;SDS011;3222;48.858;10.128;2023-04-16T01:43:01;4.40;;;3.53;;
6378;SDS011;3222;48.858;10.128;2023-04-16T01:45:28;8.50;;;3.30;;
6378;SDS011;3222;48.858;10.128;2023-04-16T01:47:55;4.27;;;3.70;;
6378;SDS011;3222;48.858;10.128;2023-04-16T01:50:21;4.00;;;3.70;;
6378;SDS011;3222;48.858;10.128;2023-04-16T01:52:47;4.47;;;4.07;;
6378;SDS011;3222;48.858;10.128;2023-04-16T01:55:13;3.77;;;3.47;;
6378;SDS011;3222;48.858;10.128;2023-04-16T01:57:38;3.43;;;3.13;;
6378;SDS011;3222;48.858;10.128;2023-04-16T02:00:05;3.80;;;3.27;;
6378;SDS011;3222;48.858;10.128;2023-04-16T02:02:43;3.20;;;2.90;;
6378;SDS011;3222;48.858;10.128;2023-04-16T02:05:11;3.10;;;2.90;;
6378;SDS011;3222;48.858;10.128;2023-04-16T02:07:37;3.47;;;3.17;;
6378;SDS011;3222;48.858;10.128;2023-04-16T02:10:03;3.83;;;3.53;;
6378;SDS011;3222;48.858;10.128;2023-04-16T02:12:30;5.10;;;4.60;;
6378;SDS011;3222;48.858;10.128;2023-04-16T02:14:56;5.17;;;4.67;;
6378;SDS011;3222;48.858;10.128;2023-04-16T02:17:24;7.63;;;5.40;;
6378;SDS011;3222;48.858;10.128;2023-04-16T02:20:01;9.50;;;4.90;;
6378;SDS011;3222;48.858;10.128;2023-04-16T02:22:30;7.10;;;4.23;;
6378;SDS011;3222;48.858;10.128;2023-04-16T02:24:56;5.10;;;4.60;;
6378;SDS011;3222;48.858;10.128;2023-04-16T02:27:22;4.97;;;4.50;;
6378;SDS011;3222;48.858;10.128;2023-04-16T02:29:52;4.43;;;4.03;;
6378;SDS011;3222;48.858;10.128;2023-04-16T02:32:18;5.13;;;4.10;;
6378;SDS011;3222;48.858;10.128;2023-04-16T02:34:45;4.13;;;3.73;;
6378;SDS011;3222;48.858;10.128;2023-04-16T02:37:11;3.70;;;3.40;;
6378;SDS011;3222;48.858;10.128;2023-04-16T02:39:39;3.73;;;3.30;;
6378;SDS011;3222;48.858;10.128;2023-04-16T02:42:05;3.67;;;3.37;;
6378;SDS011;3222;48.858;10.128;2023-04-16T02:44:30;3.50;;;3.23;;
6378;SDS011;3222;48.858;10.128;2023-04-16T02:46:56;3.60;;;3.30;;
6378;SDS011;3222;48.858;10.128;2023-04-16T02:49:22;3.50;;;3.30;;
6378;SDS011;3222;48.858;10.128;2023-04-16T02:51:47;2.97;;;2.77;;
6378;SDS011;3222;48.858;10.128;2023-04-16T02:54:13;3.03;;;2.83;;
6378;SDS011;3222;48.858;10.128;2023-04-16T02:56:39;3.10;;;2.90;;
6378;SDS011;3222;48.858;10.128;2023-04-16T02:59:05;2.63;;;2.53;;
6378;SDS011;3222;48.858;10.128;2023-04-16T03:01:31;3.00;;;2.80;;
6378;SDS011;3222;48.858;10.128;2023-04-16T03:03:56;3.00;;;2.80;;
6378;SDS011;3222;48.858;10.128;2023-04-16T03:06:22;2.40;;;2.30;;
6378;SDS011;3222;48.858;10.128;2023-04-16T03:08:48;3.07;;;2.77;;
6378;SDS011;3222;48.858;10.128;2023-04-16T03:11:13;2.73;;;2.53;;
6378;SDS011;3222;48.858;10.128;2023-04-16T03:13:39;3.57;;;2.60;;
6378;SDS011;3222;48.858;10.128;2023-04-16T03:16:05;2.90;;;2.33;;
6378;SDS011;3222;48.858;10.128;2023-04-16T03:18:31;2.77;;;2.57;;
6378;SDS011;3222;48.858;10.128;2023-04-16T03:20:56;2.53;;;2.33;;
6378;SDS011;3222;48.858;10.128;2023-04-16T03:23:22;2.20;;;2.10;;
6378;SDS011;3222;48.858;10.128;2023-04-16T03:25:48;2.17;;;2.07;;
6378;SDS011;3222;48.858;10.128;2023-04-16T03:28:16;2.30;;;2.20;;
6378;SDS011;3222;48.858;10.128;2023-04-16T03:30:42;2.83;;;2.60;;
6378;SDS011;3222;48.858;10.128;2023-04-16T03:33:13;2.07;;;1.97;;
6378;SDS011;3222;48.858;10.128;2023-04-16T03:35:39;2.60;;;2.30;;
6378;SDS011;3222;48.858;10.128;2023-04-16T03:38:05;2.30;;;2.20;;
6378;SDS011;3222;48.858;10.128;2023-04-16T03:40:31;2.30;;;2.10;;
6378;SDS011;3222;48.858;10.128;2023-04-16T03:42:58;2.27;;;2.17;;
6378;SDS011;3222;48.858;10.128;2023-04-16T03:45:24;2.50;;;2.40;;
6378;SDS011;3222;48.858;10.128;2023-04-16T03:47:50;2.90;;;2.40;;
6378;SDS011;3222;48.858;10.128;2023-04-16T03:50:19;2.20;;;2.10;;
6378;SDS011;3222;48.858;10.128;2023-04-16T03:52:45;2.00;;;1.90;;
6378;SDS011;3222;48.858;10.128;2023-04-16T03:55:13;2.37;;;2.17;;
6378;SDS011;3222;48.858;10.128;2023-04-16T03:57:39;2.00;;;1.90;;
6378;SDS011;3222;48.858;10.128;2023-04-16T04:00:09;2.03;;;1.93;;
6378;SDS011;3222;48.858;10.128;2023-04-16T04:03:08;1.70;;;1.70;;
6378;SDS011;3222;48.858;10.128;2023-04-16T04:05:35;1.90;;;1.80;;
6378;SDS011;3222;48.858;10.128;2023-04-16T04:08:03;1.83;;;1.77;;
6378;SDS011;3222;48.858;10.128;2023-04-16T04:10:33;2.03;;;1.93;;
6378;SDS011;3222;48.858;10.128;2023-04-16T04:13:01;1.93;;;1.83;;
6378;SDS011;3222;48.858;10.128;2023-04-16T04:15:28;1.90;;;1.80;;
6378;SDS011;3222;48.858;10.128;2023-04-16T04:17:55;1.93;;;1.83;;
6378;SDS011;3222;48.858;10.128;2023-04-16T04:20:21;1.97;;;1.87;;
6378;SDS011;3222;48.858;10.128;2023-04-16T04:22:49;2.00;;;1.90;;
6378;SDS011;3222;48.858;10.128;2023-04-16T04:25:16;1.97;;;1.87;;
6378;SDS011;3222;48.858;10.128;2023-04-16T04:27:42;2.00;;;1.90;;
6378;SDS011;3222;48.858;10.128;2023-04-16T04:30:07;2.20;;;2.10;;
6378;SDS011;3222;48.858;10.128;2023-04-16T04:32:34;2.00;;;1.90;;
6378;SDS011;3222;48.858;10.128;2023-04-16T04:35:00;2.03;;;1.93;;
6378;SDS011;3222;48.858;10.128;2023-04-16T04:37:27;2.40;;;2.20;;
6378;SDS011;3222;48.858;10.128;2023-04-16T04:39:52;2.40;;;2.30;;
6378;SDS011;3222;48.858;10.128;2023-04-16T04:42:18;2.30;;;2.20;;
6378;SDS011;3222;48.858;10.128;2023-04-16T04:44:45;2.10;;;2.00;;
6378;SDS011;3222;48.858;10.128;2023-04-16T04:47:11;3.23;;;2.10;;
6378;SDS011;3222;48.858;10.128;2023-04-16T04:49:38;2.30;;;2.20;;
6378;SDS011;3222;48.858;10.128;2023-04-16T04:52:04;2.17;;;2.07;;
6378;SDS011;3222;48.858;10.128;2023-04-16T04:54:30;2.40;;;2.30;;
6378;SDS011;3222;48.858;10.128;2023-04-16T04:56:56;2.60;;;2.50;;
6378;SDS011;3222;48.858;10.128;2023-04-16T04:59:23;2.50;;;2.40;;
6378;SDS011;3222;48.858;10.128;2023-04-16T05:01:49;2.50;;;2.40;;
6378;SDS011;3222;48.858;10.128;2023-04-16T05:04:15;2.37;;;2.27;;
6378;SDS011;3222;48.858;10.128;2023-04-16T05:06:41;2.77;;;2.57;;
6378;SDS011;3222;48.858;10.128;2023-04-16T05:09:07;2.70;;;2.50;;
6378;SDS011;3222;48.858;10.128;2023-04-16T05:11:40;3.93;;;2.90;;
6378;SDS011;3222;48.858;10.128;2023-04-16T05:14:06;4.40;;;3.40;;
6378;SDS011;3222;48.858;10.128;2023-04-16T05:16:34;6.97;;;3.90;;
6378;SDS011;3222;48.858;10.128;2023-04-16T05:19:01;4.30;;;3.90;;
6378;SDS011;3222;48.858;10.128;2023-04-16T05:21:27;3.83;;;3.53;;
6378;SDS011;3222;48.858;10.128;2023-04-16T05:23:52;4.00;;;3.70;;
6378;SDS011;3222;48.858;10.128;2023-04-16T05:26:18;5.03;;;4.40;;
6378;SDS011;3222;48.858;10.128;2023-04-16T05:28:44;5.50;;;5.00;;
6378;SDS011;3222;48.858;10.128;2023-04-16T05:31:09;4.00;;;3.70;;
6378;SDS011;3222;48.858;10.128;2023-04-16T05:33:35;4.13;;;3.83;;
6378;SDS011;3222;48.858;10.128;2023-04-16T05:36:01;4.10;;;3.80;;
6378;SDS011;3222;48.858;10.128;2023-04-16T05:38:26;3.47;;;3.17;;
6378;SDS011;3222;48.858;10.128;2023-04-16T05:40:52;3.20;;;2.90;;
6378;SDS011;3222;48.858;10.128;2023-04-16T05:43:17;2.83;;;2.63;;
6378;SDS011;3222;48.858;10.128;2023-04-16T05:45:43;3.10;;;2.53;;
6378;SDS011;3222;48.858;10.128;2023-04-16T05:48:09;3.03;;;2.33;;
6378;SDS011;3222;48.858;10.128;2023-04-16T05:50:35;2.77;;;2.30;;
6378;SDS011;3222;48.858;10.128;2023-04-16T05:53:01;2.43;;;2.27;;
6378;SDS011;3222;48.858;10.128;2023-04-16T05:55:29;2.30;;;2.20;;
6378;SDS011;3222;48.858;10.128;2023-04-16T05:57:55;2.30;;;2.20;;
6378;SDS011;3222;48.858;10.128;2023-04-16T06:00:21;4.10;;;2.80;;
6378;SDS011;3222;48.858;10.128;2023-04-16T06:02:46;2.43;;;2.23;;
6378;SDS011;3222;48.858;10.128;2023-04-16T06:05:12;2.50;;;2.30;;
6378;SDS011;3222;48.858;10.128;2023-04-16T06:07:38;2.30;;;2.20;;
6378;SDS011;3222;48.858;10.128;2023-04-16T06:10:04;3.13;;;2.40;;
6378;SDS011;3222;48.858;10.128;2023-04-16T06:12:30;2.93;;;2.40;;
6378;SDS011;3222;48.858;10.128;2023-04-16T06:14:55;2.20;;;2.10;;
6378;SDS011;3222;48.858;10.128;2023-04-16T06:17:21;2.33;;;2.23;;
6378;SDS011;3222;48.858;10.128;2023-04-16T06:19:47;2.63;;;2.43;;
6378;SDS011;3222;48.858;10.128;2023-04-16T06:22:12;2.77;;;2.57;;
6378;SDS011;3222;48.858;10.128;2023-04-16T06:24:38;2.50;;;2.37;;
6378;SDS011;3222;48.858;10.128;2023-04-16T06:27:04;2.80;;;2.60;;
6378;SDS011;3222;48.858;10.128;2023-04-16T06:29:30;2.80;;;2.67;;
6378;SDS011;3222;48.858;10.128;2023-04-16T06:31:55;2.93;;;2.73;;
6378;SDS011;3222;48.858;10.128;2023-04-16T06:34:21;5.10;;;2.50;;
6378;SDS011;3222;48.858;10.128;2023-04-16T06:36:47;2.57;;;2.40;;
6378;SDS011;3222;48.858;10.128;2023-04-16T06:39:12;2.73;;;2.53;;
6378;SDS011;3222;48.858;10.128;2023-04-16T06:41:38;3.00;;;2.80;;
6378;SDS011;3222;48.858;10.128;2023-04-16T06:44:04;3.07;;;2.73;;
6378;SDS011;3222;48.858;10.128;2023-04-16T06:46:30;2.80;;;2.60;;
6378;SDS011;3222;48.858;10.128;2023-04-16T06:48:55;2.83;;;2.63;;
6378;SDS011;3222;48.858;10.128;2023-04-16T06:51:21;2.40;;;2.30;;
6378;SDS011;3222;48.858;10.128;2023-04-16T06:53:47;3.40;;;3.10;;
6378;SDS011;3222;48.858;10.128;2023-04-16T06:56:13;2.80;;;2.60;;
6378;SDS011;3222;48.858;10.128;2023-04-16T06:58:39;2.87;;;2.60;;
6378;SDS011;3222;48.858;10.128;2023-04-16T07:01:04;3.23;;;3.03;;
6378;SDS011;3222;48.858;10.128;2023-04-16T07:03:30;3.20;;;2.90;;
6378;SDS011;3222;48.858;10.128;2023-04-16T07:05:56;2.97;;;2.77;;
6378;SDS011;3222;48.858;10.128;2023-04-16T07:08:21;3.30;;;3.10;;
6378;SDS011;3222;48.858;10.128;2023-04-16T07:10:47;3.23;;;3.03;;
6378;SDS011;3222;48.858;10.128;2023-04-16T07:13:13;3.20;;;2.90;;
6378;SDS011;3222;48.858;10.128;2023-04-16T07:15:39;3.47;;;3.17;;
6378;SDS011;3222;48.858;10.128;2023-04-16T07:18:04;3.47;;;3.17;;
6378;SDS011;3222;48.858;10.128;2023-04-16T07:20:30;3.97;;;3.60;;
6378;SDS011;3222;48.858;10.128;2023-04-16T07:22:56;3.80;;;3.50;;
6378;SDS011;3222;48.858;10.128;2023-04-16T07:25:23;4.40;;;4.00;;
6378;SDS011;3222;48.858;10.128;2023-04-16T07:27:49;4.67;;;4.27;;
6378;SDS011;3222;48.858;10.128;2023-04-16T07:30:15;3.93;;;3.63;;
6378;SDS011;3222;48.858;10.128;2023-04-16T07:32:41;4.20;;;3.90;;
6378;SDS011;3222;48.858;10.128;2023-04-16T07:35:07;4.93;;;4.17;;
6378;SDS011;3222;48.858;10.128;2023-04-16T07:37:32;4.60;;;4.20;;
6378;SDS011;3222;48.858;10.128;2023-04-16T07:39:58;4.57;;;4.17;;
6378;SDS011;3222;48.858;10.128;2023-04-16T07:42:25;5.27;;;4.77;;
6378;SDS011;3222;48.858;10.128;2023-04-16T07:44:51;5.97;;;4.67;;
6378;SDS011;3222;48.858;10.128;2023-04-16T07:47:17;5.33;;;4.83;;
6378;SDS011;3222;48.858;10.128;2023-04-16T07:49:43;6.27;;;4.93;;
6378;SDS011;3222;48.858;10.128;2023-04-16T07:52:09;4.93;;;4.43;;
6378;SDS011;3222;48.858;10.128;2023-04-16T07:54:34;5.57;;;4.77;;
6378;SDS011;3222;48.858;10.128;2023-04-16T07:57:00;5.00;;;4.57;;
6378;SDS011;3222;48.858;10.128;2023-04-16T07:59:26;5.80;;;5.30;;
6378;SDS011;3222;48.858;10.128;2023-04-16T08:01:52;5.77;;;5.20;;
6378;SDS011;3222;48.858;10.128;2023-04-16T08:04:18;6.10;;;5.27;;
6378;SDS011;3222;48.858;10.128;2023-04-16T08:06:48;5.13;;;4.63;;
6378;SDS011;3222;48.858;10.128;2023-04-16T08:09:19;6.27;;;5.60;;
6378;SDS011;3222;48.858;10.128;2023-04-16T08:11:46;5.90;;;5.30;;
6378;SDS011;3222;48.858;10.128;2023-04-16T08:14:14;7.33;;;5.70;;
6378;SDS011;3222;48.858;10.128;2023-04-16T08:16:40;7.03;;;5.60;;
6378;SDS011;3222;48.858;10.128;2023-04-16T08:19:06;6.77;;;6.17;;
6378;SDS011;3222;48.858;10.128;2023-04-16T08:21:32;6.10;;;5.50;;
6378;SDS011;3222;48.858;10.128;2023-04-16T08:23:58;6.53;;;5.40;;
6378;SDS011;3222;48.858;10.128;2023-04-16T08:26:23;8.50;;;5.33;;
6378;SDS011;3222;48.858;10.128;2023-04-16T08:28:49;6.30;;;5.67;;
6378;SDS011;3222;48.858;10.128;2023-04-16T08:31:15;5.67;;;5.17;;
6378;SDS011;3222;48.858;10.128;2023-04-16T08:33:40;5.90;;;5.40;;
6378;SDS011;3222;48.858;10.128;2023-04-16T08:36:06;6.53;;;5.43;;
6378;SDS011;3222;48.858;10.128;2023-04-16T08:38:32;5.33;;;4.83;;
6378;SDS011;3222;48.858;10.128;2023-04-16T08:40:59;4.87;;;4.40;;
6378;SDS011;3222;48.858;10.128;2023-04-16T08:43:27;5.20;;;4.77;;
6378;SDS011;3222;48.858;10.128;2023-04-16T08:45:58;5.43;;;4.90;;
6378;SDS011;3222;48.858;10.128;2023-04-16T08:48:26;5.53;;;4.80;;
6378;SDS011;3222;48.858;10.128;2023-04-16T08:50:56;5.10;;;4.60;;
6378;SDS011;3222;48.858;10.128;2023-04-16T08:53:27;5.90;;;5.30;;
6378;SDS011;3222;48.858;10.128;2023-04-16T08:55:59;5.87;;;5.17;;
6378;SDS011;3222;48.858;10.128;2023-04-16T08:58:29;5.33;;;4.83;;
6378;SDS011;3222;48.858;10.128;2023-04-16T09:00:59;5.60;;;5.10;;
6378;SDS011;3222;48.858;10.128;2023-04-16T09:03:28;5.50;;;5.00;;
6378;SDS011;3222;48.858;10.128;2023-04-16T09:05:55;5.63;;;4.97;;
6378;SDS011;3222;48.858;10.128;2023-04-16T09:08:27;6.60;;;5.40;;
6378;SDS011;3222;48.858;10.128;2023-04-16T09:10:54;5.83;;;5.23;;
6378;SDS011;3222;48.858;10.128;2023-04-16T09:13:21;6.90;;;4.80;;
6378;SDS011;3222;48.858;10.128;2023-04-16T09:15:50;7.13;;;5.53;;
6378;SDS011;3222;48.858;10.128;2023-04-16T09:18:21;6.93;;;5.40;;
6378;SDS011;3222;48.858;10.128;2023-04-16T09:20:48;5.90;;;5.20;;
6378;SDS011;3222;48.858;10.128;2023-04-16T09:23:15;5.83;;;5.10;;
6378;SDS011;3222;48.858;10.128;2023-04-16T09:25:41;6.23;;;4.90;;
6378;SDS011;3222;48.858;10.128;2023-04-16T09:28:07;6.20;;;5.57;;
6378;SDS011;3222;48.858;10.128;2023-04-16T09:30:33;6.30;;;4.97;;
6378;SDS011;3222;48.858;10.128;2023-04-16T09:33:11;6.87;;;5.23;;
6378;SDS011;3222;48.858;10.128;2023-04-16T09:35:47;6.60;;;5.50;;
6378;SDS011;3222;48.858;10.128;2023-04-16T09:38:14;6.63;;;5.70;;
6378;SDS011;3222;48.858;10.128;2023-04-16T09:40:40;6.27;;;5.63;;
6378;SDS011;3222;48.858;10.128;2023-04-16T09:43:11;5.93;;;5.33;;
6378;SDS011;3222;48.858;10.128;2023-04-16T09:45:52;7.10;;;6.40;;
6378;SDS011;3222;48.858;10.128;2023-04-16T09:48:28;7.93;;;6.20;;
6378;SDS011;3222;48.858;10.128;2023-04-16T09:50:55;6.73;;;6.03;;
6378;SDS011;3222;48.858;10.128;2023-04-16T09:53:25;6.03;;;5.40;;
6378;SDS011;3222;48.858;10.128;2023-04-16T09:58:22;6.13;;;5.47;;
6378;SDS011;3222;48.858;10.128;2023-04-16T10:00:48;8.70;;;5.57;;
6378;SDS011;3222;48.858;10.128;2023-04-16T10:03:30;6.80;;;5.40;;
6378;SDS011;3222;48.858;10.128;2023-04-16T10:06:00;6.70;;;5.33;;
6378;SDS011;3222;48.858;10.128;2023-04-16T10:08:41;6.23;;;4.70;;
6378;SDS011;3222;48.858;10.128;2023-04-16T10:11:08;5.13;;;4.63;;
6378;SDS011;3222;48.858;10.128;2023-04-16T10:13:34;6.73;;;5.10;;
6378;SDS011;3222;48.858;10.128;2023-04-16T10:16:00;5.83;;;5.33;;
6378;SDS011;3222;48.858;10.128;2023-04-16T10:18:27;5.17;;;4.67;;
6378;SDS011;3222;48.858;10.128;2023-04-16T10:20:53;6.10;;;5.13;;
6378;SDS011;3222;48.858;10.128;2023-04-16T10:23:22;8.30;;;4.97;;
6378;SDS011;3222;48.858;10.128;2023-04-16T10:25:48;5.20;;;4.70;;
6378;SDS011;3222;48.858;10.128;2023-04-16T10:28:14;4.73;;;4.27;;
6378;SDS011;3222;48.858;10.128;2023-04-16T10:30:42;5.07;;;4.67;;
6378;SDS011;3222;48.858;10.128;2023-04-16T10:33:38;4.90;;;4.40;;
6378;SDS011;3222;48.858;10.128;2023-04-16T10:36:12;4.00;;;3.70;;
6378;SDS011;3222;48.858;10.128;2023-04-16T10:38:40;5.27;;;4.47;;
6378;SDS011;3222;48.858;10.128;2023-04-16T10:41:10;4.53;;;4.13;;
6378;SDS011;3222;48.858;10.128;2023-04-16T10:43:39;5.53;;;4.80;;
6378;SDS011;3222;48.858;10.128;2023-04-16T10:49:02;4.20;;;3.90;;
6378;SDS011;3222;48.858;10.128;2023-04-16T10:51:36;5.57;;;4.33;;
6378;SDS011;3222;48.858;10.128;2023-04-16T10:56:30;4.30;;;3.90;;
6378;SDS011;3222;48.858;10.128;2023-04-16T10:58:56;4.47;;;4.07;;
6378;SDS011;3222;48.858;10.128;2023-04-16T11:01:29;6.20;;;4.43;;
6378;SDS011;3222;48.858;10.128;2023-04-16T11:04:00;4.63;;;4.10;;
6378;SDS011;3222;48.858;10.128;2023-04-16T11:06:59;4.30;;;3.90;;
6378;SDS011;3222;48.858;10.128;2023-04-16T11:09:45;5.07;;;4.57;;
6378;SDS011;3222;48.858;10.128;2023-04-16T11:12:24;4.20;;;3.80;;
6378;SDS011;3222;48.858;10.128;2023-04-16T11:15:00;4.37;;;3.97;;
6378;SDS011;3222;48.858;10.128;2023-04-16T11:20:08;5.00;;;3.70;;
6378;SDS011;3222;48.858;10.128;2023-04-16T11:22:42;4.20;;;3.90;;
6378;SDS011;3222;48.858;10.128;2023-04-16T11:25:09;4.50;;;4.10;;
6378;SDS011;3222;48.858;10.128;2023-04-16T11:27:35;5.23;;;4.00;;
6378;SDS011;3222;48.858;10.128;2023-04-16T11:30:02;4.40;;;3.87;;
6378;SDS011;3222;48.858;10.128;2023-04-16T11:32:33;3.90;;;3.60;;
6378;SDS011;3222;48.858;10.128;2023-04-16T11:35:04;4.50;;;4.10;;
6378;SDS011;3222;48.858;10.128;2023-04-16T11:37:46;4.57;;;4.17;;
6378;SDS011;3222;48.858;10.128;2023-04-16T11:40:12;6.23;;;4.03;;
6378;SDS011;3222;48.858;10.128;2023-04-16T11:42:39;4.03;;;3.73;;
6378;SDS011;3222;48.858;10.128;2023-04-16T11:45:06;4.03;;;3.73;;
6378;SDS011;3222;48.858;10.128;2023-04-16T11:47:46;4.30;;;3.87;;
6378;SDS011;3222;48.858;10.128;2023-04-16T11:50:23;4.40;;;4.00;;
6378;SDS011;3222;48.858;10.128;2023-04-16T11:52:55;5.80;;;4.20;;
6378;SDS011;3222;48.858;10.128;2023-04-16T11:55:22;4.63;;;4.23;;
6378;SDS011;3222;48.858;10.128;2023-04-16T11:57:48;4.70;;;4.20;;
6378;SDS011;3222;48.858;10.128;2023-04-16T12:00:15;4.53;;;4.10;;
6378;SDS011;3222;48.858;10.128;2023-04-16T12:02:41;6.33;;;4.10;;
6378;SDS011;3222;48.858;10.128;2023-04-16T12:05:30;5.27;;;4.33;;
6378;SDS011;3222;48.858;10.128;2023-04-16T12:07:59;4.43;;;4.00;;
6378;SDS011;3222;48.858;10.128;2023-04-16T12:10:36;8.03;;;4.47;;
6378;SDS011;3222;48.858;10.128;2023-04-16T12:13:17;5.40;;;4.90;;
6378;SDS011;3222;48.858;10.128;2023-04-16T12:15:47;5.03;;;4.30;;
6378;SDS011;3222;48.858;10.128;2023-04-16T12:18:14;4.90;;;4.40;;
6378;SDS011;3222;48.858;10.128;2023-04-16T12:20:45;5.10;;;4.33;;
6378;SDS011;3222;48.858;10.128;2023-04-16T12:23:29;4.67;;;4.27;;
6378;SDS011;3222;48.858;10.128;2023-04-16T12:25:58;6.10;;;4.33;;
6378;SDS011;3222;48.858;10.128;2023-04-16T12:28:34;5.20;;;4.63;;
6378;SDS011;3222;48.858;10.128;2023-04-16T12:31:02;4.97;;;4.53;;
6378;SDS011;3222;48.858;10.128;2023-04-16T12:33:29;4.30;;;3.90;;
6378;SDS011;3222;48.858;10.128;2023-04-16T12:35:55;6.67;;;4.20;;
6378;SDS011;3222;48.858;10.128;2023-04-16T12:38:21;4.93;;;3.70;;
6378;SDS011;3222;48.858;10.128;2023-04-16T12:40:46;4.10;;;3.80;;
6378;SDS011;3222;48.858;10.128;2023-04-16T12:43:12;3.80;;;3.50;;
6378;SDS011;3222;48.858;10.128;2023-04-16T12:45:38;4.00;;;3.70;;
6378;SDS011;3222;48.858;10.128;2023-04-16T12:48:04;5.33;;;4.10;;
6378;SDS011;3222;48.858;10.128;2023-04-16T12:50:30;4.60;;;4.20;;
6378;SDS011;3222;48.858;10.128;2023-04-16T12:52:56;5.03;;;4.53;;
6378;SDS011;3222;48.858;10.128;2023-04-16T12:55:23;4.50;;;4.10;;
6378;SDS011;3222;48.858;10.128;2023-04-16T12:57:49;4.10;;;3.70;;
6378;SDS011;3222;48.858;10.128;2023-04-16T13:00:17;4.13;;;3.80;;
6378;SDS011;3222;48.858;10.128;2023-04-16T13:02:43;4.87;;;3.67;;
6378;SDS011;3222;48.858;10.128;2023-04-16T13:05:09;4.53;;;4.13;;
6378;SDS011;3222;48.858;10.128;2023-04-16T13:07:35;3.53;;;3.23;;
6378;SDS011;3222;48.858;10.128;2023-04-16T13:10:01;5.37;;;3.83;;
6378;SDS011;3222;48.858;10.128;2023-04-16T13:12:27;4.03;;;3.73;;
6378;SDS011;3222;48.858;10.128;2023-04-16T13:14:53;3.40;;;3.20;;
6378;SDS011;3222;48.858;10.128;2023-04-16T13:17:19;3.77;;;3.47;;
6378;SDS011;3222;48.858;10.128;2023-04-16T13:19:45;4.40;;;3.50;;
6378;SDS011;3222;48.858;10.128;2023-04-16T13:22:10;3.80;;;3.50;;
6378;SDS011;3222;48.858;10.128;2023-04-16T13:24:37;3.90;;;3.60;;
6378;SDS011;3222;48.858;10.128;2023-04-16T13:27:03;4.60;;;3.80;;
6378;SDS011;3222;48.858;10.128;2023-04-16T13:29:29;4.20;;;3.80;;
6378;SDS011;3222;48.858;10.128;2023-04-16T13:31:54;4.30;;;3.90;;
6378;SDS011;3222;48.858;10.128;2023-04-16T13:34:21;5.13;;;4.10;;
6378;SDS011;3222;48.858;10.128;2023-04-16T13:36:46;5.03;;;4.37;;
6378;SDS011;3222;48.858;10.128;2023-04-16T13:39:12;4.33;;;3.50;;
6378;SDS011;3222;48.858;10.128;2023-04-16T13:41:39;3.70;;;3.40;;
6378;SDS011;3222;48.858;10.128;2023-04-16T13:44:05;4.10;;;3.70;;
6378;SDS011;3222;48.858;10.128;2023-04-16T13:46:31;4.93;;;3.90;;
6378;SDS011;3222;48.858;10.128;2023-04-16T13:48:57;3.33;;;3.13;;
6378;SDS011;3222;48.858;10.128;2023-04-16T13:51:24;4.87;;;3.37;;
6378;SDS011;3222;48.858;10.128;2023-04-16T13:53:49;3.97;;;3.67;;
6378;SDS011;3222;48.858;10.128;2023-04-16T13:56:15;3.50;;;3.17;;
6378;SDS011;3222;48.858;10.128;2023-04-16T13:58:40;4.07;;;3.77;;
6378;SDS011;3222;48.858;10.128;2023-04-16T14:01:06;6.07;;;4.70;;
6378;SDS011;3222;48.858;10.128;2023-04-16T14:03:33;4.27;;;3.87;;
6378;SDS011;3222;48.858;10.128;2023-04-16T14:06:01;4.73;;;3.77;;
6378;SDS011;3222;48.858;10.128;2023-04-16T14:08:27;5.33;;;3.90;;
6378;SDS011;3222;48.858;10.128;2023-04-16T14:10:54;5.47;;;4.17;;
6378;SDS011;3222;48.858;10.128;2023-04-16T14:13:20;4.67;;;4.27;;
6378;SDS011;3222;48.858;10.128;2023-04-16T14:15:46;4.23;;;3.83;;
6378;SDS011;3222;48.858;10.128;2023-04-16T14:18:12;4.93;;;4.53;;
6378;SDS011;3222;48.858;10.128;2023-04-16T14:20:37;5.03;;;4.17;;
6378;SDS011;3222;48.858;10.128;2023-04-16T14:23:04;5.50;;;4.80;;
6378;SDS011;3222;48.858;10.128;2023-04-16T14:25:30;5.10;;;4.70;;
6378;SDS011;3222;48.858;10.128;2023-04-16T14:27:57;5.00;;;4.50;;
6378;SDS011;3222;48.858;10.128;2023-04-16T14:30:24;5.30;;;4.80;;
6378;SDS011;3222;48.858;10.128;2023-04-16T14:32:49;5.67;;;5.10;;
6378;SDS011;3222;48.858;10.128;2023-04-16T14:35:15;5.80;;;5.20;;
6378;SDS011;3222;48.858;10.128;2023-04-16T14:37:41;6.03;;;5.30;;
6378;SDS011;3222;48.858;10.128;2023-04-16T14:40:07;5.93;;;5.33;;
6378;SDS011;3222;48.858;10.128;2023-04-16T14:42:34;6.30;;;5.60;;
6378;SDS011;3222;48.858;10.128;2023-04-16T14:45:03;6.27;;;5.57;;
6378;SDS011;3222;48.858;10.128;2023-04-16T14:47:31;6.40;;;5.80;;
6378;SDS011;3222;48.858;10.128;2023-04-16T14:50:00;7.10;;;6.40;;
6378;SDS011;3222;48.858;10.128;2023-04-16T14:52:27;6.27;;;5.67;;
6378;SDS011;3222;48.858;10.128;2023-04-16T14:54:54;7.70;;;6.33;;
6378;SDS011;3222;48.858;10.128;2023-04-16T14:57:20;8.57;;;6.03;;
6378;SDS011;3222;48.858;10.128;2023-04-16T14:59:47;6.60;;;5.97;;
6378;SDS011;3222;48.858;10.128;2023-04-16T15:02:13;6.30;;;5.70;;
6378;SDS011;3222;48.858;10.128;2023-04-16T15:04:39;6.97;;;6.27;;
6378;SDS011;3222;48.858;10.128;2023-04-16T15:07:05;6.40;;;5.80;;
6378;SDS011;3222;48.858;10.128;2023-04-16T15:09:32;5.97;;;5.37;;
6378;SDS011;3222;48.858;10.128;2023-04-16T15:11:58;5.93;;;5.43;;